NSZ59T ESSA-EGKK
Flight info
| Callsign | NSZ59T |
|---|---|
| Flight time | N/A |
| Altitude | 36000 |
| Route | ARS N623 BEDLA N866 LAPSI DCT INVOL N866 DETNA DCT ETVOK DCT KEMEG/N0443F380 DCT RERPA DCT UPGAS DCT TIPAN DCT WECOW DCT BINBO DCT AKOKO N866 BUKUT P7 BARMI |
| Aircraft | B738/M-SDE2E3FGHIRWXY/LB1 |
Departure
| Time | N/A |
|---|---|
| Airport | Stockholm-Arlanda Airport (ESSA) |
Arrival
| Time | 2026-05-04 18:41 |
|---|---|
| Airport | London Gatwick Airport (EGKK) |
| Time | Latitude | Longitude | Altitude | Speed | Heading |
|---|---|---|---|---|---|
| 2026-05-04 17:27 | 54.79090 | 4.57601 | 36047 ft | 427 kts | 209° |
| 2026-05-04 17:28 | 54.68654 | 4.48003 | 36044 ft | 428 kts | 209° |
| 2026-05-04 17:29 | 54.52887 | 4.33606 | 36048 ft | 427 kts | 209° |
| 2026-05-04 17:31 | 54.39782 | 4.21723 | 36045 ft | 426 kts | 208° |
| 2026-05-04 17:32 | 54.26684 | 4.09930 | 36040 ft | 425 kts | 208° |
| 2026-05-04 17:33 | 54.16274 | 4.00619 | 36048 ft | 424 kts | 208° |
| 2026-05-04 17:34 | 54.09080 | 3.94194 | 36033 ft | 422 kts | 208° |
| 2026-05-04 17:35 | 53.96310 | 3.82906 | 36040 ft | 418 kts | 208° |
| 2026-05-04 17:36 | 53.91152 | 3.78362 | 36047 ft | 417 kts | 208° |
| 2026-05-04 17:36 | 53.86004 | 3.73837 | 36041 ft | 416 kts | 208° |
| 2026-05-04 17:37 | 53.80869 | 3.69334 | 36046 ft | 415 kts | 208° |
| 2026-05-04 17:37 | 53.75748 | 3.64855 | 36051 ft | 414 kts | 208° |
| 2026-05-04 17:38 | 53.70619 | 3.60382 | 36050 ft | 415 kts | 208° |
| 2026-05-04 17:38 | 53.65516 | 3.55944 | 36062 ft | 416 kts | 208° |
| 2026-05-04 17:39 | 53.57784 | 3.49243 | 36048 ft | 417 kts | 208° |
| 2026-05-04 17:39 | 53.52618 | 3.44781 | 36049 ft | 418 kts | 208° |
| 2026-05-04 17:40 | 53.47443 | 3.40323 | 36051 ft | 418 kts | 208° |
| 2026-05-04 17:40 | 53.42266 | 3.35873 | 36050 ft | 418 kts | 208° |
| 2026-05-04 17:41 | 53.37079 | 3.31443 | 36052 ft | 418 kts | 208° |
| 2026-05-04 17:41 | 53.31892 | 3.27047 | 36049 ft | 418 kts | 208° |
| 2026-05-04 17:42 | 53.26707 | 3.22658 | 36052 ft | 417 kts | 208° |
| 2026-05-04 17:42 | 53.21527 | 3.18279 | 36051 ft | 417 kts | 208° |
| 2026-05-04 17:43 | 53.16364 | 3.13901 | 36055 ft | 416 kts | 208° |
| 2026-05-04 17:43 | 53.11212 | 3.09549 | 36040 ft | 415 kts | 208° |
| 2026-05-04 17:44 | 53.06065 | 3.05233 | 35666 ft | 411 kts | 208° |
| 2026-05-04 17:44 | 53.03533 | 3.03115 | 35270 ft | 405 kts | 208° |
| 2026-05-04 17:44 | 53.01031 | 3.01022 | 34880 ft | 401 kts | 208° |
| 2026-05-04 17:45 | 52.98617 | 2.99004 | 34505 ft | 397 kts | 208° |
| 2026-05-04 17:45 | 52.96160 | 2.96954 | 34114 ft | 393 kts | 208° |
| 2026-05-04 17:45 | 52.93733 | 2.94931 | 33696 ft | 389 kts | 208° |
| 2026-05-04 17:45 | 52.91334 | 2.92930 | 33323 ft | 383 kts | 208° |
| 2026-05-04 17:46 | 52.88966 | 2.90954 | 32943 ft | 378 kts | 208° |
| 2026-05-04 17:46 | 52.86642 | 2.89016 | 32557 ft | 370 kts | 208° |
| 2026-05-04 17:46 | 52.84369 | 2.87123 | 32188 ft | 361 kts | 208° |
| 2026-05-04 17:46 | 52.82149 | 2.85275 | 31835 ft | 353 kts | 208° |
| 2026-05-04 17:47 | 52.79977 | 2.83469 | 31476 ft | 346 kts | 208° |
| 2026-05-04 17:47 | 52.77848 | 2.81702 | 31130 ft | 338 kts | 208° |
| 2026-05-04 17:47 | 52.75766 | 2.79977 | 30798 ft | 333 kts | 207° |
| 2026-05-04 17:47 | 52.73687 | 2.78257 | 30512 ft | 339 kts | 207° |
| 2026-05-04 17:48 | 52.71526 | 2.76471 | 30174 ft | 356 kts | 207° |
| 2026-05-04 17:48 | 52.69299 | 2.74634 | 29747 ft | 357 kts | 207° |
| 2026-05-04 17:48 | 52.67832 | 2.73426 | 29475 ft | 354 kts | 207° |
| 2026-05-04 17:48 | 52.64913 | 2.71025 | 28974 ft | 347 kts | 207° |
| 2026-05-04 17:49 | 52.62794 | 2.69284 | 28606 ft | 343 kts | 208° |
| 2026-05-04 17:49 | 52.60671 | 2.67540 | 28240 ft | 339 kts | 208° |
| 2026-05-04 17:49 | 52.58573 | 2.65818 | 27860 ft | 335 kts | 208° |
| 2026-05-04 17:49 | 52.56501 | 2.64119 | 27515 ft | 331 kts | 208° |
| 2026-05-04 17:50 | 52.54447 | 2.62436 | 27145 ft | 328 kts | 208° |
| 2026-05-04 17:50 | 52.52412 | 2.60770 | 26785 ft | 325 kts | 208° |
| 2026-05-04 17:50 | 52.50394 | 2.59121 | 26434 ft | 323 kts | 208° |
| 2026-05-04 17:50 | 52.48393 | 2.57488 | 26080 ft | 320 kts | 208° |
| 2026-05-04 17:51 | 52.46414 | 2.55876 | 25955 ft | 313 kts | 208° |
| 2026-05-04 17:51 | 52.44447 | 2.54277 | 25883 ft | 323 kts | 208° |
| 2026-05-04 17:51 | 52.42384 | 2.52599 | 25787 ft | 338 kts | 208° |
| 2026-05-04 17:51 | 52.40247 | 2.50863 | 25673 ft | 346 kts | 208° |
| 2026-05-04 17:52 | 52.38094 | 2.49119 | 25559 ft | 344 kts | 208° |
| 2026-05-04 17:52 | 52.35955 | 2.47389 | 25450 ft | 342 kts | 208° |
| 2026-05-04 17:52 | 52.33824 | 2.45666 | 25333 ft | 341 kts | 208° |
| 2026-05-04 17:52 | 52.31701 | 2.43949 | 25235 ft | 340 kts | 208° |
| 2026-05-04 17:53 | 52.29585 | 2.42235 | 25135 ft | 339 kts | 208° |
| 2026-05-04 17:53 | 52.27475 | 2.40529 | 25031 ft | 338 kts | 208° |
| 2026-05-04 17:53 | 52.25368 | 2.38830 | 24907 ft | 338 kts | 207° |
| 2026-05-04 17:53 | 52.23261 | 2.37135 | 24819 ft | 337 kts | 207° |
| 2026-05-04 17:54 | 52.21157 | 2.35444 | 24725 ft | 337 kts | 207° |
| 2026-05-04 17:54 | 52.19053 | 2.33755 | 24621 ft | 337 kts | 207° |
| 2026-05-04 17:54 | 52.16947 | 2.32066 | 24524 ft | 338 kts | 207° |
| 2026-05-04 17:54 | 52.14838 | 2.30375 | 24423 ft | 338 kts | 207° |
| 2026-05-04 17:55 | 52.12728 | 2.28686 | 24311 ft | 338 kts | 207° |
| 2026-05-04 17:55 | 52.10615 | 2.26997 | 24216 ft | 338 kts | 207° |
| 2026-05-04 17:55 | 52.08503 | 2.25309 | 24115 ft | 338 kts | 207° |
| 2026-05-04 17:55 | 52.06390 | 2.23621 | 24013 ft | 338 kts | 207° |
| 2026-05-04 17:56 | 52.04277 | 2.21940 | 23907 ft | 338 kts | 207° |
| 2026-05-04 17:56 | 52.02171 | 2.20266 | 23803 ft | 336 kts | 207° |
| 2026-05-04 17:56 | 52.00078 | 2.18602 | 23701 ft | 334 kts | 207° |
| 2026-05-04 17:56 | 51.97990 | 2.16943 | 23602 ft | 335 kts | 207° |
| 2026-05-04 17:57 | 51.95898 | 2.15281 | 23492 ft | 335 kts | 207° |
| 2026-05-04 17:57 | 51.93813 | 2.13603 | 23364 ft | 333 kts | 210° |
| 2026-05-04 17:57 | 51.91943 | 2.11463 | 23066 ft | 328 kts | 221° |
| 2026-05-04 17:57 | 51.90220 | 2.09048 | 22648 ft | 327 kts | 221° |
| 2026-05-04 17:58 | 51.88516 | 2.06620 | 22158 ft | 327 kts | 221° |
| 2026-05-04 17:58 | 51.86819 | 2.04198 | 21730 ft | 325 kts | 221° |
| 2026-05-04 17:58 | 51.85122 | 2.01789 | 21321 ft | 323 kts | 221° |
| 2026-05-04 17:58 | 51.83464 | 1.99445 | 20880 ft | 323 kts | 221° |
| 2026-05-04 17:59 | 51.81780 | 1.97074 | 20540 ft | 319 kts | 221° |
| 2026-05-04 17:59 | 51.80130 | 1.94761 | 20210 ft | 316 kts | 221° |
| 2026-05-04 17:59 | 51.76807 | 1.90116 | 19366 ft | 316 kts | 220° |
| 2026-05-04 18:00 | 51.75150 | 1.87807 | 19067 ft | 313 kts | 220° |
| 2026-05-04 18:00 | 51.73510 | 1.85526 | 18740 ft | 310 kts | 220° |
| 2026-05-04 18:00 | 51.71882 | 1.83261 | 18450 ft | 308 kts | 220° |
| 2026-05-04 18:00 | 51.70260 | 1.81007 | 18214 ft | 307 kts | 220° |
| 2026-05-04 18:01 | 51.68643 | 1.78765 | 18005 ft | 308 kts | 220° |
| 2026-05-04 18:01 | 51.67008 | 1.76499 | 17812 ft | 312 kts | 220° |
| 2026-05-04 18:01 | 51.65357 | 1.74214 | 17621 ft | 313 kts | 220° |
| 2026-05-04 18:02 | 51.62045 | 1.69636 | 17247 ft | 315 kts | 220° |
| 2026-05-04 18:02 | 51.60380 | 1.67339 | 17055 ft | 316 kts | 220° |
| 2026-05-04 18:02 | 51.58713 | 1.65040 | 16868 ft | 315 kts | 220° |
| 2026-05-04 18:02 | 51.57059 | 1.62761 | 16672 ft | 312 kts | 220° |
| 2026-05-04 18:03 | 51.55414 | 1.60498 | 16487 ft | 312 kts | 220° |
| 2026-05-04 18:03 | 51.53764 | 1.58228 | 16307 ft | 313 kts | 220° |
| 2026-05-04 18:03 | 51.52109 | 1.55957 | 16126 ft | 313 kts | 220° |
| 2026-05-04 18:03 | 51.50451 | 1.53682 | 15947 ft | 314 kts | 220° |
| 2026-05-04 18:04 | 51.48790 | 1.51405 | 15763 ft | 315 kts | 220° |
| 2026-05-04 18:04 | 51.47123 | 1.49122 | 15576 ft | 315 kts | 220° |
| 2026-05-04 18:04 | 51.43787 | 1.44561 | 15202 ft | 315 kts | 220° |
| 2026-05-04 18:05 | 51.42119 | 1.42284 | 15014 ft | 315 kts | 220° |
| 2026-05-04 18:05 | 51.40454 | 1.40014 | 14834 ft | 314 kts | 220° |
| 2026-05-04 18:05 | 51.38798 | 1.37757 | 14643 ft | 313 kts | 220° |
| 2026-05-04 18:05 | 51.37140 | 1.35500 | 14458 ft | 312 kts | 220° |
| 2026-05-04 18:06 | 51.33840 | 1.31015 | 14093 ft | 311 kts | 221° |
| 2026-05-04 18:06 | 51.32194 | 1.28781 | 13907 ft | 310 kts | 220° |
| 2026-05-04 18:06 | 51.30554 | 1.26556 | 13712 ft | 310 kts | 220° |
| 2026-05-04 18:07 | 51.28911 | 1.24331 | 13509 ft | 309 kts | 220° |
| 2026-05-04 18:07 | 51.27273 | 1.22114 | 13323 ft | 308 kts | 220° |
| 2026-05-04 18:07 | 51.25641 | 1.19908 | 13135 ft | 307 kts | 220° |
| 2026-05-04 18:07 | 51.24018 | 1.17715 | 12936 ft | 305 kts | 220° |
| 2026-05-04 18:08 | 51.22400 | 1.15532 | 12770 ft | 304 kts | 220° |
| 2026-05-04 18:08 | 51.21332 | 1.14091 | 12649 ft | 303 kts | 220° |
| 2026-05-04 18:08 | 51.19724 | 1.11925 | 12471 ft | 302 kts | 220° |
| 2026-05-04 18:08 | 51.18122 | 1.09768 | 12293 ft | 301 kts | 220° |
| 2026-05-04 18:09 | 51.14416 | 1.04787 | 11877 ft | 299 kts | 220° |
| 2026-05-04 18:09 | 51.11251 | 1.00539 | 11526 ft | 297 kts | 220° |
| 2026-05-04 18:10 | 51.10216 | 0.99152 | 11411 ft | 296 kts | 220° |
| 2026-05-04 18:10 | 51.08642 | 0.97046 | 11242 ft | 295 kts | 220° |
| 2026-05-04 18:10 | 51.07073 | 0.94948 | 11061 ft | 294 kts | 220° |
| 2026-05-04 18:10 | 51.05602 | 0.92703 | 10882 ft | 294 kts | 235° |
| 2026-05-04 18:11 | 51.04676 | 0.89880 | 10728 ft | 281 kts | 245° |
| 2026-05-04 18:11 | 51.03879 | 0.87121 | 10542 ft | 268 kts | 245° |
| 2026-05-04 18:11 | 51.03115 | 0.84490 | 10382 ft | 257 kts | 245° |
| 2026-05-04 18:11 | 51.02372 | 0.81957 | 10242 ft | 250 kts | 244° |
| 2026-05-04 18:12 | 51.01639 | 0.79473 | 10096 ft | 247 kts | 244° |
| 2026-05-04 18:12 | 51.00909 | 0.77015 | 9959 ft | 247 kts | 244° |
| 2026-05-04 18:12 | 51.00167 | 0.74528 | 9825 ft | 252 kts | 244° |
| 2026-05-04 18:12 | 50.99412 | 0.72002 | 9661 ft | 255 kts | 244° |
| 2026-05-04 18:13 | 50.98658 | 0.69487 | 9500 ft | 257 kts | 244° |
| 2026-05-04 18:13 | 50.97893 | 0.66942 | 9340 ft | 253 kts | 244° |
| 2026-05-04 18:13 | 50.96398 | 0.61988 | 9032 ft | 246 kts | 244° |
| 2026-05-04 18:14 | 50.95661 | 0.59544 | 8893 ft | 246 kts | 244° |
| 2026-05-04 18:14 | 50.94924 | 0.57102 | 8752 ft | 246 kts | 244° |
| 2026-05-04 18:14 | 50.94186 | 0.54655 | 8607 ft | 246 kts | 244° |
| 2026-05-04 18:15 | 50.92706 | 0.49764 | 8321 ft | 246 kts | 244° |
| 2026-05-04 18:15 | 50.91372 | 0.44769 | 8029 ft | 247 kts | 265° |
| 2026-05-04 18:15 | 50.91578 | 0.42109 | 8020 ft | 243 kts | 284° |
| 2026-05-04 18:16 | 50.92046 | 0.39545 | 8000 ft | 241 kts | 287° |
| 2026-05-04 18:16 | 50.92541 | 0.36994 | 8009 ft | 243 kts | 287° |
| 2026-05-04 18:16 | 50.93033 | 0.34412 | 8013 ft | 247 kts | 286° |
| 2026-05-04 18:17 | 50.94004 | 0.29180 | 7990 ft | 246 kts | 285° |
| 2026-05-04 18:17 | 50.94482 | 0.26579 | 7990 ft | 245 kts | 285° |
| 2026-05-04 18:17 | 50.96624 | 0.22743 | 8001 ft | 243 kts | 343° |
| 2026-05-04 18:18 | 50.98306 | 0.22609 | 8007 ft | 247 kts | 13° |
| 2026-05-04 18:18 | 50.99836 | 0.23829 | 7999 ft | 251 kts | 43° |
| 2026-05-04 18:18 | 51.00761 | 0.26127 | 7992 ft | 249 kts | 75° |
| 2026-05-04 18:18 | 51.00814 | 0.28835 | 8006 ft | 247 kts | 101° |
| 2026-05-04 18:19 | 50.99886 | 0.34083 | 7992 ft | 247 kts | 107° |
| 2026-05-04 18:19 | 50.99389 | 0.36698 | 7992 ft | 248 kts | 107° |
| 2026-05-04 18:19 | 50.98900 | 0.39323 | 7991 ft | 248 kts | 108° |
| 2026-05-04 18:20 | 50.98068 | 0.41669 | 7986 ft | 246 kts | 138° |
| 2026-05-04 18:20 | 50.96590 | 0.42942 | 8006 ft | 244 kts | 168° |
| 2026-05-04 18:20 | 50.94917 | 0.42867 | 8004 ft | 243 kts | 198° |
| 2026-05-04 18:20 | 50.93483 | 0.41500 | 8000 ft | 243 kts | 227° |
| 2026-05-04 18:21 | 50.92668 | 0.39178 | 7997 ft | 244 kts | 257° |
| 2026-05-04 18:21 | 50.92655 | 0.36509 | 8016 ft | 245 kts | 281° |
| 2026-05-04 18:21 | 50.93089 | 0.33888 | 8012 ft | 247 kts | 286° |
| 2026-05-04 18:21 | 50.93586 | 0.31275 | 7997 ft | 247 kts | 286° |
| 2026-05-04 18:22 | 50.94078 | 0.28667 | 7993 ft | 247 kts | 286° |
| 2026-05-04 18:22 | 50.94554 | 0.26112 | 7972 ft | 242 kts | 288° |
| 2026-05-04 18:22 | 50.95402 | 0.23893 | 7840 ft | 235 kts | 320° |
| 2026-05-04 18:22 | 50.96870 | 0.22792 | 7605 ft | 233 kts | 352° |
| 2026-05-04 18:23 | 50.98465 | 0.23055 | 7341 ft | 233 kts | 22° |
| 2026-05-04 18:23 | 50.99753 | 0.24555 | 7101 ft | 232 kts | 53° |
| 2026-05-04 18:23 | 51.00374 | 0.26897 | 7047 ft | 233 kts | 83° |
| 2026-05-04 18:23 | 51.00247 | 0.29401 | 7006 ft | 232 kts | 105° |
| 2026-05-04 18:24 | 50.99800 | 0.31856 | 7000 ft | 231 kts | 106° |
| 2026-05-04 18:24 | 50.99348 | 0.34298 | 6990 ft | 230 kts | 106° |
| 2026-05-04 18:24 | 50.98898 | 0.36739 | 6990 ft | 231 kts | 106° |
| 2026-05-04 18:24 | 50.98443 | 0.39183 | 6997 ft | 232 kts | 109° |
| 2026-05-04 18:25 | 50.97576 | 0.41306 | 6992 ft | 232 kts | 141° |
| 2026-05-04 18:25 | 50.96132 | 0.42354 | 7021 ft | 233 kts | 173° |
| 2026-05-04 18:25 | 50.94513 | 0.42063 | 6790 ft | 240 kts | 204° |
| 2026-05-04 18:25 | 50.93210 | 0.40460 | 6547 ft | 239 kts | 235° |
| 2026-05-04 18:26 | 50.92634 | 0.38044 | 6295 ft | 236 kts | 266° |
| 2026-05-04 18:26 | 50.92690 | 0.35464 | 6089 ft | 232 kts | 275° |
| 2026-05-04 18:26 | 50.92835 | 0.32934 | 6011 ft | 229 kts | 276° |
| 2026-05-04 18:26 | 50.92984 | 0.30433 | 6001 ft | 228 kts | 276° |
| 2026-05-04 18:27 | 50.93133 | 0.27934 | 5994 ft | 228 kts | 276° |
| 2026-05-04 18:27 | 50.93284 | 0.25435 | 5996 ft | 228 kts | 276° |
| 2026-05-04 18:27 | 50.93438 | 0.22922 | 6002 ft | 230 kts | 276° |
| 2026-05-04 18:27 | 50.93595 | 0.20398 | 6001 ft | 233 kts | 276° |
| 2026-05-04 18:28 | 50.93757 | 0.17786 | 6015 ft | 242 kts | 276° |
| 2026-05-04 18:28 | 50.94009 | 0.15140 | 6003 ft | 242 kts | 280° |
| 2026-05-04 18:28 | 50.94310 | 0.12521 | 5996 ft | 241 kts | 281° |
| 2026-05-04 18:28 | 50.94617 | 0.09918 | 5991 ft | 239 kts | 281° |
| 2026-05-04 18:29 | 50.94923 | 0.07335 | 5990 ft | 238 kts | 281° |
| 2026-05-04 18:29 | 50.95232 | 0.04721 | 5670 ft | 248 kts | 281° |
| 2026-05-04 18:29 | 50.95542 | 0.02047 | 5438 ft | 245 kts | 281° |
| 2026-05-04 18:29 | 50.95834 | -0.00535 | 5247 ft | 241 kts | 281° |
| 2026-05-04 18:30 | 50.96415 | -0.05761 | 5019 ft | 241 kts | 281° |
| 2026-05-04 18:30 | 50.96702 | -0.08339 | 4988 ft | 232 kts | 281° |
| 2026-05-04 18:30 | 50.96965 | -0.10793 | 4981 ft | 220 kts | 281° |
| 2026-05-04 18:31 | 50.97214 | -0.13157 | 4988 ft | 216 kts | 281° |
| 2026-05-04 18:31 | 50.97463 | -0.15511 | 4991 ft | 217 kts | 281° |
| 2026-05-04 18:31 | 50.97715 | -0.17885 | 5005 ft | 219 kts | 281° |
| 2026-05-04 18:31 | 50.97970 | -0.20274 | 4919 ft | 220 kts | 281° |
| 2026-05-04 18:32 | 50.98231 | -0.22724 | 4401 ft | 232 kts | 281° |
| 2026-05-04 18:32 | 50.98502 | -0.25275 | 4055 ft | 235 kts | 281° |
| 2026-05-04 18:32 | 50.98773 | -0.27838 | 3787 ft | 235 kts | 281° |
| 2026-05-04 18:32 | 50.99040 | -0.30400 | 3522 ft | 235 kts | 281° |
| 2026-05-04 18:33 | 50.99303 | -0.32956 | 3268 ft | 235 kts | 281° |
| 2026-05-04 18:33 | 50.99563 | -0.35511 | 3066 ft | 234 kts | 281° |
| 2026-05-04 18:33 | 50.99821 | -0.38071 | 3015 ft | 233 kts | 281° |
| 2026-05-04 18:33 | 51.00068 | -0.40550 | 2992 ft | 222 kts | 281° |
| 2026-05-04 18:34 | 51.00343 | -0.42891 | 2977 ft | 209 kts | 292° |
| 2026-05-04 18:34 | 51.01156 | -0.44613 | 2985 ft | 189 kts | 331° |
| 2026-05-04 18:34 | 51.02304 | -0.45442 | 3009 ft | 178 kts | 341° |
| 2026-05-04 18:34 | 51.03455 | -0.46176 | 3018 ft | 180 kts | 341° |
| 2026-05-04 18:35 | 51.04628 | -0.46921 | 3011 ft | 184 kts | 341° |
| 2026-05-04 18:35 | 51.05827 | -0.47677 | 3016 ft | 186 kts | 341° |
| 2026-05-04 18:35 | 51.07024 | -0.48430 | 3003 ft | 185 kts | 341° |
| 2026-05-04 18:35 | 51.08245 | -0.48961 | 2984 ft | 180 kts | 4° |
| 2026-05-04 18:36 | 51.09360 | -0.48258 | 3000 ft | 175 kts | 43° |
| 2026-05-04 18:36 | 51.10211 | -0.46842 | 3000 ft | 179 kts | 46° |
| 2026-05-04 18:36 | 51.11038 | -0.45350 | 2998 ft | 182 kts | 59° |
| 2026-05-04 18:36 | 51.11441 | -0.43460 | 3000 ft | 181 kts | 74° |
| 2026-05-04 18:37 | 51.11756 | -0.41509 | 2845 ft | 183 kts | 75° |
| 2026-05-04 18:37 | 51.12038 | -0.39539 | 2613 ft | 181 kts | 76° |
| 2026-05-04 18:37 | 51.12301 | -0.37598 | 2368 ft | 177 kts | 76° |
| 2026-05-04 18:37 | 51.12553 | -0.35724 | 2122 ft | 168 kts | 76° |
| 2026-05-04 18:38 | 51.12789 | -0.33965 | 1906 ft | 156 kts | 76° |
| 2026-05-04 18:38 | 51.13013 | -0.32316 | 1698 ft | 149 kts | 76° |
| 2026-05-04 18:38 | 51.13231 | -0.30704 | 1489 ft | 150 kts | 77° |
| 2026-05-04 18:38 | 51.13449 | -0.29091 | 1328 ft | 147 kts | 76° |
| 2026-05-04 18:39 | 51.13657 | -0.27558 | 1098 ft | 137 kts | 76° |
| 2026-05-04 18:39 | 51.13857 | -0.26081 | 903 ft | 135 kts | 76° |
| 2026-05-04 18:39 | 51.14053 | -0.24637 | 726 ft | 133 kts | 77° |
| 2026-05-04 18:39 | 51.14244 | -0.23187 | 577 ft | 134 kts | 77° |
| 2026-05-04 18:40 | 51.14439 | -0.21734 | 390 ft | 135 kts | 76° |
| 2026-05-04 18:40 | 51.14640 | -0.20285 | 224 ft | 132 kts | 76° |
| 2026-05-04 18:40 | 51.14820 | -0.18989 | 206 ft | 105 kts | 77° |
| 2026-05-04 18:40 | 51.14943 | -0.18091 | 213 ft | 61 kts | 77° |
| 2026-05-04 18:41 | 51.15006 | -0.17637 | 208 ft | 32 kts | 77° |
| 2026-05-04 18:41 | 51.15061 | -0.17349 | 209 ft | 19 kts | 65° |
| 2026-05-04 18:41 | 51.15115 | -0.17224 | 213 ft | 8 kts | 47° |
| 2026-05-04 18:41 | 51.15147 | -0.17211 | 203 ft | 4 kts | 351° |
| 2026-05-04 18:42 | 51.15184 | -0.17246 | 213 ft | 8 kts | 327° |
| 2026-05-04 18:42 | 51.15237 | -0.17305 | 203 ft | 5 kts | 324° |
| 2026-05-04 18:42 | 51.15263 | -0.17333 | 205 ft | 3 kts | 334° |
| 2026-05-04 18:42 | 51.15266 | -0.17335 | 207 ft | 1 kts | 336° |
| 2026-05-04 18:43 | 51.15270 | -0.17338 | 208 ft | 0 kts | 338° |
| 2026-05-04 18:43 | 51.15273 | -0.17340 | 209 ft | 2 kts | 340° |
| 2026-05-04 18:44 | 51.15303 | -0.17352 | 203 ft | 7 kts | 347° |
| 2026-05-04 18:44 | 51.15320 | -0.17359 | 211 ft | 8 kts | 347° |
| 2026-05-04 18:44 | 51.15377 | -0.17241 | 211 ft | 11 kts | 70° |
| 2026-05-04 18:44 | 51.15400 | -0.17144 | 205 ft | 11 kts | 67° |
| 2026-05-04 18:45 | 51.15420 | -0.17028 | 210 ft | 9 kts | 78° |
| 2026-05-04 18:45 | 51.15436 | -0.16911 | 209 ft | 13 kts | 77° |
| 2026-05-04 18:45 | 51.15451 | -0.16775 | 210 ft | 13 kts | 95° |
| 2026-05-04 18:45 | 51.15449 | -0.16658 | 211 ft | 8 kts | 77° |
| 2026-05-04 18:46 | 51.15472 | -0.16638 | 209 ft | 4 kts | 351° |
| 2026-05-04 18:46 | 51.15499 | -0.16648 | 204 ft | 4 kts | 347° |
| 2026-05-04 18:46 | 51.15521 | -0.16655 | 210 ft | 0 kts | 348° |